sensor_id;sensor_type;location;lat;lon;timestamp;pressure;altitude;pressure_sealevel;temperature;humidity
49877;BME280;35771;48.978;9.294;2022-07-22T07:16:18;99280.03;;;25.41;58.88
49877;BME280;35771;48.978;9.294;2022-07-22T07:18:45;99265.88;;;25.37;58.17
49877;BME280;35771;48.978;9.294;2022-07-22T07:21:11;99252.22;;;25.41;57.91
49877;BME280;35771;48.978;9.294;2022-07-22T07:23:38;99265.78;;;25.73;57.07
49877;BME280;35771;48.978;9.294;2022-07-22T07:26:05;99257.16;;;25.75;56.71
49877;BME280;35771;48.978;9.294;2022-07-22T07:28:32;99251.38;;;25.51;57.64
49877;BME280;35771;48.978;9.294;2022-07-22T07:30:59;99248.53;;;25.71;56.44
49877;BME280;35771;48.978;9.294;2022-07-22T07:33:27;99257.31;;;26.14;55.91
49877;BME280;35771;48.978;9.294;2022-07-22T07:35:54;99245.34;;;26.14;55.57
49877;BME280;35771;48.978;9.294;2022-07-22T07:38:20;99248.09;;;26.24;55.80
49877;BME280;35771;48.978;9.294;2022-07-22T07:40:47;99235.88;;;26.10;55.65
49877;BME280;35771;48.978;9.294;2022-07-22T07:43:14;99237.00;;;26.59;54.33
49877;BME280;35771;48.978;9.294;2022-07-22T07:45:40;99252.50;;;26.80;53.77
49877;BME280;35771;48.978;9.294;2022-07-22T07:48:07;99231.66;;;26.23;55.24
49877;BME280;35771;48.978;9.294;2022-07-22T07:50:35;99246.69;;;26.22;54.60
49877;BME280;35771;48.978;9.294;2022-07-22T07:53:02;99219.41;;;26.13;55.09
49877;BME280;35771;48.978;9.294;2022-07-22T07:55:28;99224.34;;;26.32;54.03
49877;BME280;35771;48.978;9.294;2022-07-22T07:57:55;99222.84;;;26.00;55.03
49877;BME280;35771;48.978;9.294;2022-07-22T08:00:23;99229.84;;;25.82;56.78
49877;BME280;35771;48.978;9.294;2022-07-22T08:02:53;99220.47;;;25.57;56.94
49877;BME280;35771;48.978;9.294;2022-07-22T08:05:21;99225.34;;;25.91;57.08
49877;BME280;35771;48.978;9.294;2022-07-22T08:07:49;99231.78;;;25.87;56.55
49877;BME280;35771;48.978;9.294;2022-07-22T08:10:17;99226.66;;;26.20;58.12
49877;BME280;35771;48.978;9.294;2022-07-22T08:12:44;99213.72;;;25.79;57.92
49877;BME280;35771;48.978;9.294;2022-07-22T08:15:11;99217.19;;;25.35;58.98
49877;BME280;35771;48.978;9.294;2022-07-22T08:17:38;99225.34;;;26.02;58.12
49877;BME280;35771;48.978;9.294;2022-07-22T08:20:05;99216.00;;;26.27;56.41
49877;BME280;35771;48.978;9.294;2022-07-22T08:22:33;99232.97;;;26.80;55.68
49877;BME280;35771;48.978;9.294;2022-07-22T08:25:02;99229.25;;;26.90;54.97
49877;BME280;35771;48.978;9.294;2022-07-22T08:27:29;99196.63;;;26.91;53.18
49877;BME280;35771;48.978;9.294;2022-07-22T08:29:55;99219.03;;;27.10;52.94
49877;BME280;35771;48.978;9.294;2022-07-22T08:32:22;99218.03;;;26.61;53.89
49877;BME280;35771;48.978;9.294;2022-07-22T08:34:49;99205.13;;;26.30;54.84
49877;BME280;35771;48.978;9.294;2022-07-22T08:37:16;99221.72;;;26.06;55.16
49877;BME280;35771;48.978;9.294;2022-07-22T08:39:43;99219.38;;;26.24;55.43
49877;BME280;35771;48.978;9.294;2022-07-22T08:42:11;99200.28;;;26.46;55.34
49877;BME280;35771;48.978;9.294;2022-07-22T08:44:39;99211.88;;;26.64;53.75
49877;BME280;35771;48.978;9.294;2022-07-22T08:47:06;99201.72;;;26.83;52.91
49877;BME280;35771;48.978;9.294;2022-07-22T08:49:32;99199.97;;;26.48;53.38
49877;BME280;35771;48.978;9.294;2022-07-22T08:51:59;99197.13;;;26.58;53.19
49877;BME280;35771;48.978;9.294;2022-07-22T08:54:26;99193.75;;;26.61;53.33
49877;BME280;35771;48.978;9.294;2022-07-22T08:56:53;99197.59;;;26.76;52.26
49877;BME280;35771;48.978;9.294;2022-07-22T08:59:21;99198.13;;;26.78;52.69
49877;BME280;35771;48.978;9.294;2022-07-22T09:02:04;99184.50;;;26.66;53.21
49877;BME280;35771;48.978;9.294;2022-07-22T09:04:31;99164.06;;;26.81;52.94
49877;BME280;35771;48.978;9.294;2022-07-22T09:06:58;99193.31;;;27.18;51.60
49877;BME280;35771;48.978;9.294;2022-07-22T09:09:32;99181.47;;;27.26;51.28
49877;BME280;35771;48.978;9.294;2022-07-22T09:12:05;99178.09;;;27.34;50.74
49877;BME280;35771;48.978;9.294;2022-07-22T09:14:45;99180.31;;;27.32;50.88
49877;BME280;35771;48.978;9.294;2022-07-22T09:17:25;99180.03;;;27.34;51.49
49877;BME280;35771;48.978;9.294;2022-07-22T09:19:53;99179.69;;;27.11;51.17
49877;BME280;35771;48.978;9.294;2022-07-22T09:22:30;99181.91;;;27.44;52.57
49877;BME280;35771;48.978;9.294;2022-07-22T09:24:58;99168.00;;;27.39;49.80
49877;BME280;35771;48.978;9.294;2022-07-22T09:27:26;99176.41;;;27.33;49.92
49877;BME280;35771;48.978;9.294;2022-07-22T09:29:54;99184.31;;;27.50;50.12
49877;BME280;35771;48.978;9.294;2022-07-22T09:32:21;99172.22;;;27.60;49.59
49877;BME280;35771;48.978;9.294;2022-07-22T09:34:48;99179.69;;;27.65;49.54
49877;BME280;35771;48.978;9.294;2022-07-22T09:37:14;99169.06;;;27.43;49.71
49877;BME280;35771;48.978;9.294;2022-07-22T09:39:41;99160.19;;;27.35;49.58
49877;BME280;35771;48.978;9.294;2022-07-22T09:42:08;99177.38;;;27.72;49.21
49877;BME280;35771;48.978;9.294;2022-07-22T09:44:34;99157.66;;;27.63;49.08
49877;BME280;35771;48.978;9.294;2022-07-22T09:47:02;99160.38;;;28.12;47.98
49877;BME280;35771;48.978;9.294;2022-07-22T09:49:33;99156.69;;;28.16;47.73
49877;BME280;35771;48.978;9.294;2022-07-22T09:52:01;99162.47;;;28.58;46.51
49877;BME280;35771;48.978;9.294;2022-07-22T09:54:28;99155.84;;;28.35;47.07
49877;BME280;35771;48.978;9.294;2022-07-22T09:56:55;99155.94;;;28.30;46.46
49877;BME280;35771;48.978;9.294;2022-07-22T09:59:22;99143.69;;;28.25;47.08
49877;BME280;35771;48.978;9.294;2022-07-22T10:01:51;99140.97;;;28.20;46.48
49877;BME280;35771;48.978;9.294;2022-07-22T10:04:23;99146.94;;;28.33;46.60
49877;BME280;35771;48.978;9.294;2022-07-22T10:06:51;99130.72;;;28.16;46.73
49877;BME280;35771;48.978;9.294;2022-07-22T10:09:17;99135.34;;;28.58;45.73
49877;BME280;35771;48.978;9.294;2022-07-22T10:11:44;99139.75;;;28.65;45.69
49877;BME280;35771;48.978;9.294;2022-07-22T10:14:13;99132.34;;;28.55;46.35
49877;BME280;35771;48.978;9.294;2022-07-22T10:16:40;99138.63;;;28.66;46.40
49877;BME280;35771;48.978;9.294;2022-07-22T10:19:07;99112.56;;;28.84;46.02
49877;BME280;35771;48.978;9.294;2022-07-22T10:21:35;99123.50;;;29.13;45.46
49877;BME280;35771;48.978;9.294;2022-07-22T10:24:10;99116.13;;;29.18;42.70
49877;BME280;35771;48.978;9.294;2022-07-22T10:26:48;99112.50;;;29.03;43.05
49877;BME280;35771;48.978;9.294;2022-07-22T10:29:29;99123.63;;;29.36;42.96
49877;BME280;35771;48.978;9.294;2022-07-22T10:32:22;99102.34;;;29.49;43.44
49877;BME280;35771;48.978;9.294;2022-07-22T10:35:21;99099.44;;;29.68;40.01
49877;BME280;35771;48.978;9.294;2022-07-22T10:37:51;99103.50;;;29.62;40.79
49877;BME280;35771;48.978;9.294;2022-07-22T10:40:19;99110.88;;;29.86;40.88
49877;BME280;35771;48.978;9.294;2022-07-22T10:43:20;99107.25;;;30.08;38.79
49877;BME280;35771;48.978;9.294;2022-07-22T10:45:49;99103.63;;;30.07;39.99
49877;BME280;35771;48.978;9.294;2022-07-22T10:48:19;99104.13;;;30.09;38.31
49877;BME280;35771;48.978;9.294;2022-07-22T10:51:07;99094.56;;;29.88;38.59
49877;BME280;35771;48.978;9.294;2022-07-22T10:53:57;99089.28;;;29.72;38.84
49877;BME280;35771;48.978;9.294;2022-07-22T10:56:27;99087.44;;;30.04;38.23
49877;BME280;35771;48.978;9.294;2022-07-22T10:58:59;99085.69;;;29.94;38.19
49877;BME280;35771;48.978;9.294;2022-07-22T11:01:30;99081.41;;;30.33;38.64
49877;BME280;35771;48.978;9.294;2022-07-22T11:04:17;99076.91;;;30.46;39.20
49877;BME280;35771;48.978;9.294;2022-07-22T11:06:46;99072.09;;;30.69;39.08
49877;BME280;35771;48.978;9.294;2022-07-22T11:09:15;99073.41;;;30.95;38.45
49877;BME280;35771;48.978;9.294;2022-07-22T11:11:44;99073.50;;;30.81;37.46
49877;BME280;35771;48.978;9.294;2022-07-22T11:14:16;99084.13;;;30.93;36.85
49877;BME280;35771;48.978;9.294;2022-07-22T11:16:44;99057.03;;;30.57;37.19
49877;BME280;35771;48.978;9.294;2022-07-22T11:19:11;99075.84;;;31.19;38.87
49877;BME280;35771;48.978;9.294;2022-07-22T11:21:38;99073.81;;;31.02;37.48
49877;BME280;35771;48.978;9.294;2022-07-22T11:24:06;99058.44;;;31.48;37.56
49877;BME280;35771;48.978;9.294;2022-07-22T11:26:39;99062.47;;;31.82;36.33
49877;BME280;35771;48.978;9.294;2022-07-22T11:29:06;99056.84;;;31.65;35.70
49877;BME280;35771;48.978;9.294;2022-07-22T11:31:33;99042.22;;;31.36;35.05
49877;BME280;35771;48.978;9.294;2022-07-22T11:34:08;99045.50;;;31.38;34.83
49877;BME280;35771;48.978;9.294;2022-07-22T11:36:37;99034.91;;;31.27;35.23
49877;BME280;35771;48.978;9.294;2022-07-22T11:39:04;99047.47;;;31.29;34.89
49877;BME280;35771;48.978;9.294;2022-07-22T11:41:31;99020.09;;;31.44;35.73
49877;BME280;35771;48.978;9.294;2022-07-22T11:44:00;99019.34;;;32.13;35.53
49877;BME280;35771;48.978;9.294;2022-07-22T11:46:27;99018.00;;;31.67;36.17
49877;BME280;35771;48.978;9.294;2022-07-22T11:48:55;99004.72;;;31.41;35.96
49877;BME280;35771;48.978;9.294;2022-07-22T11:51:28;99025.03;;;31.38;37.37
49877;BME280;35771;48.978;9.294;2022-07-22T11:53:56;99023.06;;;31.47;35.97
49877;BME280;35771;48.978;9.294;2022-07-22T11:56:23;99010.16;;;31.46;34.88
49877;BME280;35771;48.978;9.294;2022-07-22T11:58:51;98992.31;;;31.51;35.91
49877;BME280;35771;48.978;9.294;2022-07-22T12:01:23;99013.66;;;31.52;36.77
49877;BME280;35771;48.978;9.294;2022-07-22T12:03:51;98975.13;;;31.26;37.13
49877;BME280;35771;48.978;9.294;2022-07-22T12:06:19;98977.56;;;31.19;35.69
49877;BME280;35771;48.978;9.294;2022-07-22T12:08:48;98994.31;;;31.41;36.69
49877;BME280;35771;48.978;9.294;2022-07-22T12:11:17;98985.72;;;31.38;36.37
49877;BME280;35771;48.978;9.294;2022-07-22T12:13:46;98981.97;;;31.86;35.00
49877;BME280;35771;48.978;9.294;2022-07-22T12:16:17;98949.53;;;32.15;34.64
49877;BME280;35771;48.978;9.294;2022-07-22T12:18:54;98952.78;;;32.43;34.84
49877;BME280;35771;48.978;9.294;2022-07-22T12:21:22;98968.63;;;32.66;33.91
49877;BME280;35771;48.978;9.294;2022-07-22T12:23:50;98949.53;;;32.62;33.50
49877;BME280;35771;48.978;9.294;2022-07-22T12:26:17;98957.16;;;32.62;32.52
49877;BME280;35771;48.978;9.294;2022-07-22T12:28:44;98962.31;;;32.98;32.73
49877;BME280;35771;48.978;9.294;2022-07-22T12:31:11;98971.34;;;32.83;31.93
49877;BME280;35771;48.978;9.294;2022-07-22T12:33:48;98945.69;;;32.37;32.66
49877;BME280;35771;48.978;9.294;2022-07-22T12:36:14;98923.09;;;32.55;32.03
49877;BME280;35771;48.978;9.294;2022-07-22T12:38:41;98953.06;;;32.98;32.93
49877;BME280;35771;48.978;9.294;2022-07-22T12:41:24;98935.22;;;32.46;33.63
49877;BME280;35771;48.978;9.294;2022-07-22T12:43:51;98943.75;;;32.76;32.77
49877;BME280;35771;48.978;9.294;2022-07-22T12:46:18;98946.06;;;33.04;32.43
49877;BME280;35771;48.978;9.294;2022-07-22T12:48:51;98947.22;;;32.64;31.79
49877;BME280;35771;48.978;9.294;2022-07-22T12:51:17;98931.72;;;32.67;31.95
49877;BME280;35771;48.978;9.294;2022-07-22T12:53:44;98938.78;;;32.73;31.78
49877;BME280;35771;48.978;9.294;2022-07-22T12:56:10;98933.28;;;32.77;31.33
49877;BME280;35771;48.978;9.294;2022-07-22T12:58:37;98918.84;;;32.40;32.99
49877;BME280;35771;48.978;9.294;2022-07-22T13:01:07;98940.13;;;32.97;32.53
49877;BME280;35771;48.978;9.294;2022-07-22T13:03:33;98910.09;;;32.80;31.91
49877;BME280;35771;48.978;9.294;2022-07-22T13:06:03;98919.09;;;32.73;31.84
49877;BME280;35771;48.978;9.294;2022-07-22T13:08:30;98923.34;;;32.79;32.42
49877;BME280;35771;48.978;9.294;2022-07-22T13:10:57;98917.09;;;32.26;32.23
49877;BME280;35771;48.978;9.294;2022-07-22T13:13:23;98926.06;;;32.97;31.70
49877;BME280;35771;48.978;9.294;2022-07-22T13:15:50;98921.22;;;32.76;32.30
49877;BME280;35771;48.978;9.294;2022-07-22T13:18:18;98925.88;;;33.02;31.71
49877;BME280;35771;48.978;9.294;2022-07-22T13:20:45;98900.16;;;33.12;31.31
49877;BME280;35771;48.978;9.294;2022-07-22T13:23:13;98890.66;;;33.17;31.15
49877;BME280;35771;48.978;9.294;2022-07-22T13:25:40;98890.34;;;33.40;31.77
49877;BME280;35771;48.978;9.294;2022-07-22T13:28:06;98893.16;;;33.61;31.36
49877;BME280;35771;48.978;9.294;2022-07-22T13:30:33;98880.09;;;33.77;30.39
49877;BME280;35771;48.978;9.294;2022-07-22T13:32:59;98898.53;;;33.75;30.75
49877;BME280;35771;48.978;9.294;2022-07-22T13:35:26;98884.47;;;33.66;31.25
49877;BME280;35771;48.978;9.294;2022-07-22T13:37:54;98890.63;;;33.47;31.20
49877;BME280;35771;48.978;9.294;2022-07-22T13:40:22;98884.31;;;33.29;30.60
49877;BME280;35771;48.978;9.294;2022-07-22T13:42:49;98879.81;;;33.70;30.54
49877;BME280;35771;48.978;9.294;2022-07-22T13:45:15;98886.06;;;34.21;29.08
49877;BME280;35771;48.978;9.294;2022-07-22T13:47:42;98895.34;;;34.22;29.11
49877;BME280;35771;48.978;9.294;2022-07-22T13:50:09;98891.41;;;34.35;28.59
49877;BME280;35771;48.978;9.294;2022-07-22T13:52:35;98897.28;;;34.43;27.57
49877;BME280;35771;48.978;9.294;2022-07-22T13:55:02;98889.63;;;33.85;28.59
49877;BME280;35771;48.978;9.294;2022-07-22T13:57:32;98901.88;;;33.68;28.85
49877;BME280;35771;48.978;9.294;2022-07-22T13:59:58;98874.69;;;33.84;29.08
49877;BME280;35771;48.978;9.294;2022-07-22T14:02:25;98857.69;;;33.93;28.06
49877;BME280;35771;48.978;9.294;2022-07-22T14:04:51;98857.06;;;33.75;28.79
49877;BME280;35771;48.978;9.294;2022-07-22T14:07:18;98884.66;;;34.15;28.20
49877;BME280;35771;48.978;9.294;2022-07-22T14:09:44;98868.13;;;33.80;27.62
49877;BME280;35771;48.978;9.294;2022-07-22T14:12:11;98873.22;;;33.99;27.40
49877;BME280;35771;48.978;9.294;2022-07-22T14:14:39;98872.72;;;34.31;27.06
49877;BME280;35771;48.978;9.294;2022-07-22T14:17:05;98863.91;;;34.32;26.95
49877;BME280;35771;48.978;9.294;2022-07-22T14:19:32;98862.63;;;34.67;27.17
49877;BME280;35771;48.978;9.294;2022-07-22T14:21:59;98872.47;;;34.73;27.43
49877;BME280;35771;48.978;9.294;2022-07-22T14:24:25;98872.28;;;34.90;26.49
49877;BME280;35771;48.978;9.294;2022-07-22T14:26:52;98867.44;;;34.91;27.09
49877;BME280;35771;48.978;9.294;2022-07-22T14:29:19;98859.78;;;34.67;26.83
49877;BME280;35771;48.978;9.294;2022-07-22T14:31:48;98859.69;;;34.51;27.46
49877;BME280;35771;48.978;9.294;2022-07-22T14:34:14;98850.88;;;34.52;27.75
49877;BME280;35771;48.978;9.294;2022-07-22T14:36:41;98862.97;;;34.78;26.07
49877;BME280;35771;48.978;9.294;2022-07-22T14:39:07;98844.03;;;34.53;27.22
49877;BME280;35771;48.978;9.294;2022-07-22T14:41:34;98849.72;;;34.78;26.52
49877;BME280;35771;48.978;9.294;2022-07-22T14:44:00;98864.50;;;35.00;27.02
49877;BME280;35771;48.978;9.294;2022-07-22T14:46:27;98844.28;;;34.61;26.20
49877;BME280;35771;48.978;9.294;2022-07-22T14:48:54;98852.72;;;34.73;27.71
49877;BME280;35771;48.978;9.294;2022-07-22T14:51:21;98846.97;;;35.06;26.87
49877;BME280;35771;48.978;9.294;2022-07-22T14:53:49;98837.22;;;34.67;25.68
49877;BME280;35771;48.978;9.294;2022-07-22T14:56:16;98845.81;;;34.83;26.27
49877;BME280;35771;48.978;9.294;2022-07-22T14:58:43;98832.66;;;34.87;26.21
49877;BME280;35771;48.978;9.294;2022-07-22T15:01:09;98817.31;;;34.88;26.05
49877;BME280;35771;48.978;9.294;2022-07-22T15:03:36;98833.44;;;34.75;26.38
49877;BME280;35771;48.978;9.294;2022-07-22T15:06:04;98821.34;;;34.62;26.23
49877;BME280;35771;48.978;9.294;2022-07-22T15:08:31;98816.03;;;34.61;26.38
49877;BME280;35771;48.978;9.294;2022-07-22T15:10:57;98826.28;;;34.78;25.45
49877;BME280;35771;48.978;9.294;2022-07-22T15:13:25;98829.88;;;35.03;25.49
49877;BME280;35771;48.978;9.294;2022-07-22T15:15:52;98820.03;;;35.37;24.69
49877;BME280;35771;48.978;9.294;2022-07-22T15:18:18;98795.97;;;35.43;24.46
49877;BME280;35771;48.978;9.294;2022-07-22T15:20:45;98806.38;;;34.86;24.37
49877;BME280;35771;48.978;9.294;2022-07-22T15:23:13;98806.47;;;35.02;25.15
49877;BME280;35771;48.978;9.294;2022-07-22T15:25:39;98812.19;;;35.18;24.61
49877;BME280;35771;48.978;9.294;2022-07-22T15:28:06;98816.78;;;35.10;24.90
49877;BME280;35771;48.978;9.294;2022-07-22T15:30:33;98808.72;;;35.37;25.00
49877;BME280;35771;48.978;9.294;2022-07-22T15:32:59;98801.72;;;35.19;24.49
49877;BME280;35771;48.978;9.294;2022-07-22T15:35:26;98791.09;;;34.75;25.49
49877;BME280;35771;48.978;9.294;2022-07-22T15:37:52;98803.09;;;35.37;25.48
49877;BME280;35771;48.978;9.294;2022-07-22T15:40:21;98787.88;;;35.01;24.45
49877;BME280;35771;48.978;9.294;2022-07-22T15:42:48;98810.09;;;35.28;24.76
49877;BME280;35771;48.978;9.294;2022-07-22T15:45:15;98792.81;;;35.04;24.60
49877;BME280;35771;48.978;9.294;2022-07-22T15:47:42;98809.00;;;35.32;25.12
49877;BME280;35771;48.978;9.294;2022-07-22T15:50:09;98797.88;;;35.11;23.71
49877;BME280;35771;48.978;9.294;2022-07-22T15:52:35;98787.44;;;34.99;24.28
49877;BME280;35771;48.978;9.294;2022-07-22T15:55:02;98814.28;;;35.21;24.39
49877;BME280;35771;48.978;9.294;2022-07-22T15:57:30;98793.84;;;35.12;25.59
49877;BME280;35771;48.978;9.294;2022-07-22T16:00:15;98790.38;;;34.90;24.62
49877;BME280;35771;48.978;9.294;2022-07-22T16:02:41;98793.13;;;34.87;25.74
49877;BME280;35771;48.978;9.294;2022-07-22T16:05:08;98781.50;;;34.39;26.89
49877;BME280;35771;48.978;9.294;2022-07-22T16:07:35;98781.53;;;34.27;27.27
49877;BME280;35771;48.978;9.294;2022-07-22T16:10:01;98768.13;;;34.36;27.49
49877;BME280;35771;48.978;9.294;2022-07-22T16:12:28;98781.97;;;34.16;27.94
49877;BME280;35771;48.978;9.294;2022-07-22T16:14:56;98771.84;;;34.15;27.76
49877;BME280;35771;48.978;9.294;2022-07-22T16:17:22;98772.44;;;34.21;28.06
49877;BME280;35771;48.978;9.294;2022-07-22T16:19:49;98765.72;;;33.89;28.37
49877;BME280;35771;48.978;9.294;2022-07-22T16:22:15;98771.75;;;33.66;29.44
49877;BME280;35771;48.978;9.294;2022-07-22T16:24:42;98773.03;;;33.68;29.90
49877;BME280;35771;48.978;9.294;2022-07-22T16:27:09;98762.75;;;33.73;30.01
49877;BME280;35771;48.978;9.294;2022-07-22T16:29:35;98770.31;;;34.06;29.45
49877;BME280;35771;48.978;9.294;2022-07-22T16:32:04;98760.34;;;34.33;28.92
49877;BME280;35771;48.978;9.294;2022-07-22T16:34:31;98742.34;;;34.13;28.77
49877;BME280;35771;48.978;9.294;2022-07-22T16:36:57;98748.34;;;33.99;29.11
49877;BME280;35771;48.978;9.294;2022-07-22T16:39:24;98741.97;;;33.77;30.56
49877;BME280;35771;48.978;9.294;2022-07-22T16:41:50;98752.47;;;33.56;30.74
49877;BME280;35771;48.978;9.294;2022-07-22T16:44:17;98752.31;;;33.40;30.84
49877;BME280;35771;48.978;9.294;2022-07-22T16:46:43;98737.03;;;33.41;30.22
49877;BME280;35771;48.978;9.294;2022-07-22T16:49:12;98727.75;;;33.07;31.34
49877;BME280;35771;48.978;9.294;2022-07-22T16:51:39;98758.78;;;33.19;31.78
49877;BME280;35771;48.978;9.294;2022-07-22T16:54:05;98741.84;;;32.86;32.26
49877;BME280;35771;48.978;9.294;2022-07-22T16:56:32;98752.91;;;32.70;32.90
49877;BME280;35771;48.978;9.294;2022-07-22T16:58:58;98730.69;;;32.47;33.20
49877;BME280;35771;48.978;9.294;2022-07-22T17:01:25;98732.00;;;32.50;33.22
49877;BME280;35771;48.978;9.294;2022-07-22T17:03:51;98731.09;;;32.37;33.94
49877;BME280;35771;48.978;9.294;2022-07-22T17:06:19;98737.84;;;32.44;33.80
49877;BME280;35771;48.978;9.294;2022-07-22T17:08:46;98743.53;;;32.36;34.25
49877;BME280;35771;48.978;9.294;2022-07-22T17:11:12;98739.44;;;32.24;34.43
49877;BME280;35771;48.978;9.294;2022-07-22T17:13:39;98734.38;;;32.09;34.61
49877;BME280;35771;48.978;9.294;2022-07-22T17:16:06;98737.66;;;32.20;35.22
49877;BME280;35771;48.978;9.294;2022-07-22T17:18:32;98732.75;;;31.99;34.82
49877;BME280;35771;48.978;9.294;2022-07-22T17:21:01;98722.84;;;31.63;35.56
49877;BME280;35771;48.978;9.294;2022-07-22T17:23:29;98731.28;;;31.63;35.40
49877;BME280;35771;48.978;9.294;2022-07-22T17:25:56;98728.59;;;31.67;36.11
49877;BME280;35771;48.978;9.294;2022-07-22T17:28:23;98715.41;;;31.58;36.22
49877;BME280;35771;48.978;9.294;2022-07-22T17:30:49;98723.34;;;31.56;36.51
49877;BME280;35771;48.978;9.294;2022-07-22T17:33:16;98717.63;;;31.27;36.49
49877;BME280;35771;48.978;9.294;2022-07-22T17:35:42;98704.78;;;30.99;36.43
49877;BME280;35771;48.978;9.294;2022-07-22T17:38:09;98722.78;;;30.81;36.55
49877;BME280;35771;48.978;9.294;2022-07-22T17:40:37;98710.06;;;30.57;36.82
49877;BME280;35771;48.978;9.294;2022-07-22T17:43:04;98724.22;;;30.43;37.85
49877;BME280;35771;48.978;9.294;2022-07-22T17:45:31;98715.50;;;30.62;37.10
49877;BME280;35771;48.978;9.294;2022-07-22T17:47:57;98732.00;;;30.90;37.23
49877;BME280;35771;48.978;9.294;2022-07-22T17:50:24;98735.16;;;30.97;36.61
49877;BME280;35771;48.978;9.294;2022-07-22T17:52:51;98751.50;;;30.86;36.55
49877;BME280;35771;48.978;9.294;2022-07-22T17:55:18;98732.97;;;30.59;36.43
49877;BME280;35771;48.978;9.294;2022-07-22T17:57:45;98756.41;;;30.63;35.96
49877;BME280;35771;48.978;9.294;2022-07-22T18:00:13;98755.88;;;30.44;36.53
49877;BME280;35771;48.978;9.294;2022-07-22T18:02:39;98778.31;;;30.44;36.39
49877;BME280;35771;48.978;9.294;2022-07-22T18:05:09;98771.31;;;30.24;36.01
49877;BME280;35771;48.978;9.294;2022-07-22T18:07:36;98781.81;;;30.09;35.63
49877;BME280;35771;48.978;9.294;2022-07-22T18:10:04;98788.84;;;29.89;35.60
49877;BME280;35771;48.978;9.294;2022-07-22T18:12:30;98781.97;;;29.73;35.69
49877;BME280;35771;48.978;9.294;2022-07-22T18:14:58;98788.34;;;29.64;36.21
49877;BME280;35771;48.978;9.294;2022-07-22T18:17:26;98802.38;;;29.64;35.81
49877;BME280;35771;48.978;9.294;2022-07-22T18:19:52;98801.69;;;29.36;36.92
49877;BME280;35771;48.978;9.294;2022-07-22T18:22:19;98810.81;;;29.28;36.73
49877;BME280;35771;48.978;9.294;2022-07-22T18:24:45;98798.78;;;29.05;37.29
49877;BME280;35771;48.978;9.294;2022-07-22T18:27:12;98788.78;;;28.90;37.50
49877;BME280;35771;48.978;9.294;2022-07-22T18:29:38;98799.16;;;28.75;37.73
49877;BME280;35771;48.978;9.294;2022-07-22T18:32:06;98782.81;;;28.69;38.08
49877;BME280;35771;48.978;9.294;2022-07-22T18:34:33;98815.63;;;28.77;38.24
49877;BME280;35771;48.978;9.294;2022-07-22T18:37:00;98800.34;;;28.60;38.55
49877;BME280;35771;48.978;9.294;2022-07-22T18:39:26;98813.91;;;28.53;39.01
49877;BME280;35771;48.978;9.294;2022-07-22T18:41:53;98797.13;;;28.53;38.80
49877;BME280;35771;48.978;9.294;2022-07-22T18:44:19;98806.13;;;28.36;39.29
49877;BME280;35771;48.978;9.294;2022-07-22T18:46:46;98804.25;;;28.32;39.85
49877;BME280;35771;48.978;9.294;2022-07-22T18:49:13;98806.69;;;28.24;39.58
49877;BME280;35771;48.978;9.294;2022-07-22T18:51:40;98815.75;;;28.30;39.95
49877;BME280;35771;48.978;9.294;2022-07-22T18:54:07;98837.41;;;28.24;40.04
49877;BME280;35771;48.978;9.294;2022-07-22T18:56:33;98822.28;;;28.25;39.77
49877;BME280;35771;48.978;9.294;2022-07-22T18:59:02;98824.88;;;28.22;40.43
49877;BME280;35771;48.978;9.294;2022-07-22T19:01:29;98853.66;;;28.22;40.54
49877;BME280;35771;48.978;9.294;2022-07-22T19:03:55;98857.19;;;28.14;40.63
49877;BME280;35771;48.978;9.294;2022-07-22T19:06:23;98836.13;;;28.03;40.80
49877;BME280;35771;48.978;9.294;2022-07-22T19:08:49;98874.31;;;28.07;41.68
49877;BME280;35771;48.978;9.294;2022-07-22T19:11:18;98873.31;;;28.03;41.54
49877;BME280;35771;48.978;9.294;2022-07-22T19:13:44;98878.34;;;28.01;41.67
49877;BME280;35771;48.978;9.294;2022-07-22T19:16:11;98879.81;;;27.99;42.25
49877;BME280;35771;48.978;9.294;2022-07-22T19:18:38;98882.19;;;27.72;42.41
49877;BME280;35771;48.978;9.294;2022-07-22T19:21:05;98881.44;;;27.67;43.14
49877;BME280;35771;48.978;9.294;2022-07-22T19:23:32;98866.06;;;27.50;43.61
49877;BME280;35771;48.978;9.294;2022-07-22T19:25:59;98883.44;;;27.47;43.91
49877;BME280;35771;48.978;9.294;2022-07-22T19:28:25;98882.28;;;27.29;44.38
49877;BME280;35771;48.978;9.294;2022-07-22T19:30:52;98877.72;;;27.19;45.56
49877;BME280;35771;48.978;9.294;2022-07-22T19:33:18;98868.97;;;27.07;45.84
49877;BME280;35771;48.978;9.294;2022-07-22T19:35:45;98891.66;;;27.19;45.85
49877;BME280;35771;48.978;9.294;2022-07-22T19:38:13;98880.72;;;27.04;47.04
49877;BME280;35771;48.978;9.294;2022-07-22T19:40:41;98861.09;;;26.90;47.78
49877;BME280;35771;48.978;9.294;2022-07-22T19:43:08;98884.09;;;26.82;47.18
49877;BME280;35771;48.978;9.294;2022-07-22T19:45:35;98871.56;;;26.79;48.20
49877;BME280;35771;48.978;9.294;2022-07-22T19:48:01;98867.50;;;26.72;48.45
49877;BME280;35771;48.978;9.294;2022-07-22T19:50:28;98875.56;;;26.49;50.08
49877;BME280;35771;48.978;9.294;2022-07-22T19:52:55;98892.56;;;26.47;49.95
49877;BME280;35771;48.978;9.294;2022-07-22T19:55:21;98868.38;;;26.43;50.23
49877;BME280;35771;48.978;9.294;2022-07-22T19:57:49;98874.53;;;26.64;48.79
49877;BME280;35771;48.978;9.294;2022-07-22T20:00:23;98888.84;;;26.57;50.94
49877;BME280;35771;48.978;9.294;2022-07-22T20:02:50;98895.94;;;26.44;50.54
49877;BME280;35771;48.978;9.294;2022-07-22T20:05:16;98925.31;;;26.61;49.20
49877;BME280;35771;48.978;9.294;2022-07-22T20:07:43;98935.88;;;26.64;49.48
49877;BME280;35771;48.978;9.294;2022-07-22T20:10:10;98935.09;;;26.58;48.98
49877;BME280;35771;48.978;9.294;2022-07-22T20:12:36;98951.03;;;26.53;49.06
49877;BME280;35771;48.978;9.294;2022-07-22T20:15:05;98957.19;;;26.49;51.08
49877;BME280;35771;48.978;9.294;2022-07-22T20:17:32;98952.38;;;26.31;52.89
49877;BME280;35771;48.978;9.294;2022-07-22T20:19:58;98929.00;;;25.97;54.16